sensor_id;sensor_type;location;lat;lon;timestamp;pressure;altitude;pressure_sealevel;temperature;humidity
7109;BME280;29079;41.930;25.558;2023-05-25T00:02:04;99504.44;;;14.44;100.00
7109;BME280;29079;41.930;25.558;2023-05-25T00:04:52;99522.38;;;14.35;100.00
7109;BME280;29079;41.930;25.558;2023-05-25T00:07:40;99516.47;;;14.32;100.00
7109;BME280;29079;41.930;25.558;2023-05-25T00:10:28;99510.50;;;14.46;100.00
7109;BME280;29079;41.930;25.558;2023-05-25T00:13:16;99512.47;;;14.36;100.00
7109;BME280;29079;41.930;25.558;2023-05-25T00:16:04;99479.66;;;14.16;100.00
7109;BME280;29079;41.930;25.558;2023-05-25T00:18:54;99503.28;;;14.47;100.00
7109;BME280;29079;41.930;25.558;2023-05-25T00:21:43;99507.75;;;14.64;100.00
7109;BME280;29079;41.930;25.558;2023-05-25T00:24:33;99503.88;;;14.67;100.00
7109;BME280;29079;41.930;25.558;2023-05-25T00:27:21;99502.75;;;14.43;100.00
7109;BME280;29079;41.930;25.558;2023-05-25T00:30:10;99507.91;;;14.28;100.00
7109;BME280;29079;41.930;25.558;2023-05-25T00:32:58;99506.16;;;15.12;100.00
7109;BME280;29079;41.930;25.558;2023-05-25T00:35:48;99499.78;;;14.54;100.00
7109;BME280;29079;41.930;25.558;2023-05-25T00:38:38;99501.72;;;14.70;100.00
7109;BME280;29079;41.930;25.558;2023-05-25T00:41:26;99502.03;;;14.75;100.00
7109;BME280;29079;41.930;25.558;2023-05-25T00:44:15;99508.78;;;14.71;100.00
7109;BME280;29079;41.930;25.558;2023-05-25T00:47:07;99511.34;;;14.97;100.00
7109;BME280;29079;41.930;25.558;2023-05-25T00:49:55;99498.97;;;14.54;100.00
7109;BME280;29079;41.930;25.558;2023-05-25T00:52:45;99495.25;;;14.55;100.00
7109;BME280;29079;41.930;25.558;2023-05-25T00:55:36;99499.75;;;14.38;100.00
7109;BME280;29079;41.930;25.558;2023-05-25T00:58:26;99485.28;;;14.39;100.00
7109;BME280;29079;41.930;25.558;2023-05-25T01:01:17;99493.00;;;14.76;100.00
7109;BME280;29079;41.930;25.558;2023-05-25T01:04:08;99506.84;;;14.55;100.00
7109;BME280;29079;41.930;25.558;2023-05-25T01:06:58;99486.94;;;14.32;100.00
7109;BME280;29079;41.930;25.558;2023-05-25T01:09:53;99494.81;;;14.25;100.00
7109;BME280;29079;41.930;25.558;2023-05-25T01:12:44;99491.59;;;14.21;100.00
7109;BME280;29079;41.930;25.558;2023-05-25T01:15:32;99484.03;;;14.17;100.00
7109;BME280;29079;41.930;25.558;2023-05-25T01:18:20;99496.28;;;14.54;100.00
7109;BME280;29079;41.930;25.558;2023-05-25T01:21:13;99493.16;;;14.32;100.00
7109;BME280;29079;41.930;25.558;2023-05-25T01:24:10;99496.09;;;14.13;100.00
7109;BME280;29079;41.930;25.558;2023-05-25T01:27:08;99496.34;;;14.01;100.00
7109;BME280;29079;41.930;25.558;2023-05-25T01:30:00;99489.13;;;14.28;100.00
7109;BME280;29079;41.930;25.558;2023-05-25T01:32:49;99502.00;;;13.90;100.00
7109;BME280;29079;41.930;25.558;2023-05-25T01:35:37;99501.56;;;13.76;100.00
7109;BME280;29079;41.930;25.558;2023-05-25T01:38:27;99498.44;;;14.16;100.00
7109;BME280;29079;41.930;25.558;2023-05-25T01:41:15;99498.19;;;14.01;100.00
7109;BME280;29079;41.930;25.558;2023-05-25T01:44:03;99492.84;;;13.74;100.00
7109;BME280;29079;41.930;25.558;2023-05-25T01:46:58;99494.31;;;13.95;100.00
7109;BME280;29079;41.930;25.558;2023-05-25T01:49:54;99491.31;;;13.98;100.00
7109;BME280;29079;41.930;25.558;2023-05-25T01:52:50;99384.41;;;12.98;100.00
7109;BME280;29079;41.930;25.558;2023-05-25T01:55:49;99495.84;;;13.71;100.00
7109;BME280;29079;41.930;25.558;2023-05-25T01:58:42;99495.53;;;13.74;100.00
7109;BME280;29079;41.930;25.558;2023-05-25T02:01:32;99507.69;;;13.87;100.00
7109;BME280;29079;41.930;25.558;2023-05-25T02:04:22;99481.31;;;13.82;100.00
7109;BME280;29079;41.930;25.558;2023-05-25T02:07:09;99510.22;;;14.23;100.00
7109;BME280;29079;41.930;25.558;2023-05-25T02:09:58;99490.84;;;13.76;100.00
7109;BME280;29079;41.930;25.558;2023-05-25T02:12:47;99506.91;;;14.29;100.00
7109;BME280;29079;41.930;25.558;2023-05-25T02:15:35;99502.50;;;14.20;100.00
7109;BME280;29079;41.930;25.558;2023-05-25T02:18:23;99504.22;;;13.95;100.00
7109;BME280;29079;41.930;25.558;2023-05-25T02:21:11;99508.84;;;13.58;100.00
7109;BME280;29079;41.930;25.558;2023-05-25T02:23:59;99511.53;;;13.58;100.00
7109;BME280;29079;41.930;25.558;2023-05-25T02:26:47;99504.56;;;14.00;100.00
7109;BME280;29079;41.930;25.558;2023-05-25T02:29:36;99497.91;;;13.78;100.00
7109;BME280;29079;41.930;25.558;2023-05-25T02:32:24;99505.03;;;13.69;100.00
7109;BME280;29079;41.930;25.558;2023-05-25T02:35:12;99484.00;;;13.56;100.00
7109;BME280;29079;41.930;25.558;2023-05-25T02:37:59;99507.31;;;13.82;100.00
7109;BME280;29079;41.930;25.558;2023-05-25T02:40:48;99513.03;;;13.61;100.00
7109;BME280;29079;41.930;25.558;2023-05-25T02:43:36;99512.44;;;14.01;100.00
7109;BME280;29079;41.930;25.558;2023-05-25T02:46:26;99512.78;;;13.98;100.00
7109;BME280;29079;41.930;25.558;2023-05-25T02:49:14;99521.97;;;13.69;100.00
7109;BME280;29079;41.930;25.558;2023-05-25T02:52:02;99522.75;;;13.80;100.00
7109;BME280;29079;41.930;25.558;2023-05-25T02:54:50;99521.97;;;13.69;100.00
7109;BME280;29079;41.930;25.558;2023-05-25T02:57:38;99524.94;;;13.58;100.00
7109;BME280;29079;41.930;25.558;2023-05-25T03:00:26;99522.00;;;13.51;100.00
7109;BME280;29079;41.930;25.558;2023-05-25T03:03:15;99519.72;;;13.38;100.00
7109;BME280;29079;41.930;25.558;2023-05-25T03:06:03;99527.69;;;13.48;100.00
7109;BME280;29079;41.930;25.558;2023-05-25T03:08:51;99533.91;;;13.75;100.00
7109;BME280;29079;41.930;25.558;2023-05-25T03:11:39;99488.41;;;13.21;100.00
7109;BME280;29079;41.930;25.558;2023-05-25T03:14:27;99536.56;;;13.49;100.00
7109;BME280;29079;41.930;25.558;2023-05-25T03:17:14;99533.22;;;13.47;100.00
7109;BME280;29079;41.930;25.558;2023-05-25T03:20:05;99538.34;;;13.40;100.00
7109;BME280;29079;41.930;25.558;2023-05-25T03:22:55;99535.84;;;13.65;100.00
7109;BME280;29079;41.930;25.558;2023-05-25T03:25:43;99539.94;;;13.51;100.00
7109;BME280;29079;41.930;25.558;2023-05-25T03:28:32;99532.59;;;13.53;100.00
7109;BME280;29079;41.930;25.558;2023-05-25T03:31:20;99529.00;;;13.88;100.00
7109;BME280;29079;41.930;25.558;2023-05-25T03:34:08;99534.13;;;13.55;100.00
7109;BME280;29079;41.930;25.558;2023-05-25T03:36:57;99538.94;;;13.52;100.00
7109;BME280;29079;41.930;25.558;2023-05-25T03:39:45;99544.91;;;13.64;100.00
7109;BME280;29079;41.930;25.558;2023-05-25T03:42:33;99536.47;;;13.58;100.00
7109;BME280;29079;41.930;25.558;2023-05-25T03:45:20;99547.06;;;13.86;100.00
7109;BME280;29079;41.930;25.558;2023-05-25T03:48:08;99523.34;;;13.73;100.00
7109;BME280;29079;41.930;25.558;2023-05-25T03:50:56;99550.47;;;13.88;100.00
7109;BME280;29079;41.930;25.558;2023-05-25T03:53:46;99546.53;;;14.70;100.00
7109;BME280;29079;41.930;25.558;2023-05-25T03:56:34;99544.63;;;15.05;100.00
7109;BME280;29079;41.930;25.558;2023-05-25T03:59:21;99552.81;;;14.95;100.00
7109;BME280;29079;41.930;25.558;2023-05-25T04:02:10;99518.22;;;14.92;100.00
7109;BME280;29079;41.930;25.558;2023-05-25T04:04:58;99555.59;;;15.28;100.00
7109;BME280;29079;41.930;25.558;2023-05-25T04:07:46;99555.75;;;15.35;100.00
7109;BME280;29079;41.930;25.558;2023-05-25T04:10:35;99560.50;;;14.47;100.00
7109;BME280;29079;41.930;25.558;2023-05-25T04:13:23;99546.81;;;14.24;100.00
7109;BME280;29079;41.930;25.558;2023-05-25T04:16:11;99554.47;;;14.45;100.00
7109;BME280;29079;41.930;25.558;2023-05-25T04:19:00;99558.84;;;14.20;100.00
7109;BME280;29079;41.930;25.558;2023-05-25T04:21:47;99555.00;;;14.22;100.00
7109;BME280;29079;41.930;25.558;2023-05-25T04:24:35;99563.34;;;14.45;100.00
7109;BME280;29079;41.930;25.558;2023-05-25T04:27:24;99577.59;;;14.46;100.00
7109;BME280;29079;41.930;25.558;2023-05-25T04:30:14;99563.28;;;15.23;99.84
7109;BME280;29079;41.930;25.558;2023-05-25T04:33:02;99574.63;;;14.84;99.63
7109;BME280;29079;41.930;25.558;2023-05-25T04:35:50;99565.44;;;14.94;100.00
7109;BME280;29079;41.930;25.558;2023-05-25T04:38:39;99572.72;;;15.52;99.82
7109;BME280;29079;41.930;25.558;2023-05-25T04:41:28;99567.31;;;15.19;99.90
7109;BME280;29079;41.930;25.558;2023-05-25T04:44:17;99570.19;;;15.25;98.59
7109;BME280;29079;41.930;25.558;2023-05-25T04:47:06;99577.88;;;14.61;100.00
7109;BME280;29079;41.930;25.558;2023-05-25T04:49:54;99569.28;;;15.00;100.00
7109;BME280;29079;41.930;25.558;2023-05-25T04:52:42;99571.91;;;15.51;100.00
7109;BME280;29079;41.930;25.558;2023-05-25T04:55:29;99574.59;;;15.84;98.27
7109;BME280;29079;41.930;25.558;2023-05-25T04:58:17;99576.94;;;15.95;97.75
7109;BME280;29079;41.930;25.558;2023-05-25T05:01:06;99569.91;;;15.86;99.49
7109;BME280;29079;41.930;25.558;2023-05-25T05:03:54;99570.22;;;16.08;97.83
7109;BME280;29079;41.930;25.558;2023-05-25T05:06:42;99574.09;;;15.97;98.92
7109;BME280;29079;41.930;25.558;2023-05-25T05:09:30;99578.94;;;15.77;99.03
7109;BME280;29079;41.930;25.558;2023-05-25T05:12:18;99573.06;;;15.40;100.00
7109;BME280;29079;41.930;25.558;2023-05-25T05:15:07;99578.59;;;15.30;100.00
7109;BME280;29079;41.930;25.558;2023-05-25T05:17:56;99566.84;;;15.73;100.00
7109;BME280;29079;41.930;25.558;2023-05-25T05:20:44;99576.72;;;16.30;96.95
7109;BME280;29079;41.930;25.558;2023-05-25T05:23:32;99576.94;;;16.04;98.27
7109;BME280;29079;41.930;25.558;2023-05-25T05:26:20;99581.34;;;15.96;99.11
7109;BME280;29079;41.930;25.558;2023-05-25T05:29:08;99570.06;;;15.93;97.62
7109;BME280;29079;41.930;25.558;2023-05-25T05:31:56;99580.59;;;16.19;97.10
7109;BME280;29079;41.930;25.558;2023-05-25T05:34:45;99581.47;;;16.19;95.36
7109;BME280;29079;41.930;25.558;2023-05-25T05:37:33;99583.44;;;16.34;95.50
7109;BME280;29079;41.930;25.558;2023-05-25T05:40:21;99586.28;;;16.41;93.98
7109;BME280;29079;41.930;25.558;2023-05-25T05:43:12;99580.34;;;16.53;93.59
7109;BME280;29079;41.930;25.558;2023-05-25T05:46:00;99586.66;;;16.77;93.30
7109;BME280;29079;41.930;25.558;2023-05-25T05:48:48;99581.22;;;16.85;93.29
7109;BME280;29079;41.930;25.558;2023-05-25T05:51:37;99577.75;;;16.77;94.14
7109;BME280;29079;41.930;25.558;2023-05-25T05:54:26;99580.19;;;16.95;93.72
7109;BME280;29079;41.930;25.558;2023-05-25T05:57:14;99580.97;;;17.12;93.38
7109;BME280;29079;41.930;25.558;2023-05-25T06:00:02;99582.78;;;17.19;93.43
7109;BME280;29079;41.930;25.558;2023-05-25T06:02:52;99596.56;;;17.48;92.53
7109;BME280;29079;41.930;25.558;2023-05-25T06:05:40;99592.78;;;17.57;93.01
7109;BME280;29079;41.930;25.558;2023-05-25T06:08:30;99597.22;;;17.50;92.84
7109;BME280;29079;41.930;25.558;2023-05-25T06:11:17;99599.31;;;17.63;93.24
7109;BME280;29079;41.930;25.558;2023-05-25T06:14:06;99604.19;;;17.90;92.16
7109;BME280;29079;41.930;25.558;2023-05-25T06:16:53;99597.78;;;17.91;91.69
7109;BME280;29079;41.930;25.558;2023-05-25T06:19:41;99603.75;;;18.02;91.36
7109;BME280;29079;41.930;25.558;2023-05-25T06:22:29;99576.88;;;17.85;90.80
7109;BME280;29079;41.930;25.558;2023-05-25T06:25:20;99599.88;;;18.19;88.24
7109;BME280;29079;41.930;25.558;2023-05-25T06:28:08;99596.47;;;18.40;87.24
7109;BME280;29079;41.930;25.558;2023-05-25T06:30:56;99602.31;;;18.44;86.92
7109;BME280;29079;41.930;25.558;2023-05-25T06:33:44;99600.34;;;18.53;86.83
7109;BME280;29079;41.930;25.558;2023-05-25T06:36:31;99605.03;;;18.59;88.19
7109;BME280;29079;41.930;25.558;2023-05-25T06:39:19;99598.50;;;18.68;88.69
7109;BME280;29079;41.930;25.558;2023-05-25T06:42:09;99606.97;;;18.80;87.69
7109;BME280;29079;41.930;25.558;2023-05-25T06:44:57;99605.84;;;18.89;88.38
7109;BME280;29079;41.930;25.558;2023-05-25T06:47:45;99607.16;;;18.93;87.65
7109;BME280;29079;41.930;25.558;2023-05-25T06:50:33;99605.84;;;18.89;87.01
7109;BME280;29079;41.930;25.558;2023-05-25T06:53:21;99606.78;;;18.96;86.85
7109;BME280;29079;41.930;25.558;2023-05-25T06:56:09;99604.56;;;19.00;86.56
7109;BME280;29079;41.930;25.558;2023-05-25T06:58:58;99602.38;;;19.10;86.77
7109;BME280;29079;41.930;25.558;2023-05-25T07:01:46;99578.16;;;19.02;85.76
7109;BME280;29079;41.930;25.558;2023-05-25T07:04:34;99571.72;;;19.03;86.25
7109;BME280;29079;41.930;25.558;2023-05-25T07:07:22;99580.78;;;19.32;84.68
7109;BME280;29079;41.930;25.558;2023-05-25T07:10:10;99596.34;;;19.30;86.52
7109;BME280;29079;41.930;25.558;2023-05-25T07:12:57;99596.00;;;19.55;86.95
7109;BME280;29079;41.930;25.558;2023-05-25T07:15:46;99598.53;;;19.56;84.40
7109;BME280;29079;41.930;25.558;2023-05-25T07:18:37;99594.56;;;19.59;85.31
7109;BME280;29079;41.930;25.558;2023-05-25T07:21:26;99596.38;;;19.73;84.45
7109;BME280;29079;41.930;25.558;2023-05-25T07:24:14;99599.28;;;19.72;85.61
7109;BME280;29079;41.930;25.558;2023-05-25T07:27:02;99610.63;;;19.82;85.30
7109;BME280;29079;41.930;25.558;2023-05-25T07:29:50;99586.34;;;19.89;85.51
7109;BME280;29079;41.930;25.558;2023-05-25T07:32:39;99595.06;;;19.84;84.38
7109;BME280;29079;41.930;25.558;2023-05-25T07:35:27;99589.94;;;19.96;83.32
7109;BME280;29079;41.930;25.558;2023-05-25T07:38:16;99598.81;;;20.11;84.45
7109;BME280;29079;41.930;25.558;2023-05-25T07:41:04;99601.69;;;20.10;83.49
7109;BME280;29079;41.930;25.558;2023-05-25T07:43:51;99602.59;;;20.17;82.88
7109;BME280;29079;41.930;25.558;2023-05-25T07:46:39;99595.50;;;20.16;80.34
7109;BME280;29079;41.930;25.558;2023-05-25T07:49:28;99601.81;;;20.23;81.79
7109;BME280;29079;41.930;25.558;2023-05-25T07:52:16;99600.63;;;20.32;82.05
7109;BME280;29079;41.930;25.558;2023-05-25T07:55:05;99608.69;;;20.26;79.10
7109;BME280;29079;41.930;25.558;2023-05-25T07:57:53;99601.81;;;20.23;79.40
7109;BME280;29079;41.930;25.558;2023-05-25T08:00:41;99605.50;;;20.15;80.89
7109;BME280;29079;41.930;25.558;2023-05-25T08:03:29;99609.00;;;20.38;80.60
7109;BME280;29079;41.930;25.558;2023-05-25T08:06:35;99608.63;;;20.47;81.03
7109;BME280;29079;41.930;25.558;2023-05-25T08:09:23;99614.78;;;20.63;80.53
7109;BME280;29079;41.930;25.558;2023-05-25T08:12:11;99602.66;;;20.59;77.91
7109;BME280;29079;41.930;25.558;2023-05-25T08:15:19;99606.53;;;20.71;78.68
7109;BME280;29079;41.930;25.558;2023-05-25T08:18:07;99607.41;;;20.85;78.84
7109;BME280;29079;41.930;25.558;2023-05-25T08:20:55;99605.75;;;20.91;78.59
7109;BME280;29079;41.930;25.558;2023-05-25T08:23:44;99601.47;;;21.10;78.61
7109;BME280;29079;41.930;25.558;2023-05-25T08:26:32;99594.75;;;20.99;75.83
7109;BME280;29079;41.930;25.558;2023-05-25T08:29:39;99604.22;;;20.75;75.30
7109;BME280;29079;41.930;25.558;2023-05-25T08:32:27;99598.03;;;20.87;76.04
7109;BME280;29079;41.930;25.558;2023-05-25T08:35:15;99598.94;;;21.08;74.94
7109;BME280;29079;41.930;25.558;2023-05-25T08:38:03;99592.91;;;21.06;72.24
7109;BME280;29079;41.930;25.558;2023-05-25T08:41:02;99598.88;;;20.88;74.33
7109;BME280;29079;41.930;25.558;2023-05-25T08:43:51;99598.00;;;20.81;73.39
7109;BME280;29079;41.930;25.558;2023-05-25T08:46:39;99584.41;;;20.74;75.65
7109;BME280;29079;41.930;25.558;2023-05-25T08:49:28;99604.28;;;20.88;77.02
7109;BME280;29079;41.930;25.558;2023-05-25T08:52:20;99602.28;;;21.03;76.17
7109;BME280;29079;41.930;25.558;2023-05-25T08:55:09;99595.81;;;21.04;74.25
7109;BME280;29079;41.930;25.558;2023-05-25T08:58:04;99598.94;;;21.01;75.26
7109;BME280;29079;41.930;25.558;2023-05-25T09:00:54;99596.44;;;21.07;76.21
7109;BME280;29079;41.930;25.558;2023-05-25T09:03:45;99593.56;;;21.15;76.37
7109;BME280;29079;41.930;25.558;2023-05-25T09:06:34;99580.00;;;21.21;75.77
7109;BME280;29079;41.930;25.558;2023-05-25T09:09:24;99581.25;;;21.26;75.96
7109;BME280;29079;41.930;25.558;2023-05-25T09:12:13;99534.69;;;21.09;76.20
7109;BME280;29079;41.930;25.558;2023-05-25T09:15:03;99578.22;;;21.55;74.74
7109;BME280;29079;41.930;25.558;2023-05-25T09:17:51;99588.03;;;21.63;74.88
7109;BME280;29079;41.930;25.558;2023-05-25T09:20:39;99579.22;;;21.41;74.17
7109;BME280;29079;41.930;25.558;2023-05-25T09:23:31;99566.88;;;21.38;75.86
7109;BME280;29079;41.930;25.558;2023-05-25T09:26:21;99565.63;;;21.48;76.18
7109;BME280;29079;41.930;25.558;2023-05-25T09:29:12;99561.53;;;21.79;76.15
7109;BME280;29079;41.930;25.558;2023-05-25T09:32:03;99561.53;;;21.99;73.14
7109;BME280;29079;41.930;25.558;2023-05-25T09:34:51;99571.13;;;22.01;74.28
7109;BME280;29079;41.930;25.558;2023-05-25T09:37:41;99548.56;;;21.94;74.47
7109;BME280;29079;41.930;25.558;2023-05-25T09:40:31;99554.22;;;21.99;74.50
7109;BME280;29079;41.930;25.558;2023-05-25T09:43:20;99554.81;;;22.15;72.92
7109;BME280;29079;41.930;25.558;2023-05-25T09:46:25;99548.53;;;22.21;74.25
7109;BME280;29079;41.930;25.558;2023-05-25T09:49:15;99547.72;;;22.14;74.09
7109;BME280;29079;41.930;25.558;2023-05-25T09:52:03;99552.72;;;22.10;74.27
7109;BME280;29079;41.930;25.558;2023-05-25T09:54:51;99549.97;;;22.30;73.03
7109;BME280;29079;41.930;25.558;2023-05-25T09:57:40;99548.72;;;22.26;70.27
7109;BME280;29079;41.930;25.558;2023-05-25T10:00:29;99540.53;;;22.53;69.63
7109;BME280;29079;41.930;25.558;2023-05-25T10:03:17;99543.41;;;22.65;68.53
7109;BME280;29079;41.930;25.558;2023-05-25T10:06:08;99535.84;;;22.80;66.79
7109;BME280;29079;41.930;25.558;2023-05-25T10:08:57;99534.41;;;22.71;67.64
7109;BME280;29079;41.930;25.558;2023-05-25T10:11:45;99526.47;;;22.63;67.81
7109;BME280;29079;41.930;25.558;2023-05-25T10:14:35;99506.88;;;22.40;68.07
7109;BME280;29079;41.930;25.558;2023-05-25T10:17:25;99533.66;;;22.43;70.05
7109;BME280;29079;41.930;25.558;2023-05-25T10:20:14;99526.78;;;22.34;71.02
7109;BME280;29079;41.930;25.558;2023-05-25T10:23:09;99524.91;;;22.28;72.58
7109;BME280;29079;41.930;25.558;2023-05-25T10:25:59;99525.97;;;22.34;71.26
7109;BME280;29079;41.930;25.558;2023-05-25T10:28:50;99525.88;;;22.54;71.07
7109;BME280;29079;41.930;25.558;2023-05-25T10:31:38;99522.13;;;22.55;70.18
7109;BME280;29079;41.930;25.558;2023-05-25T10:34:27;99531.25;;;22.74;69.46
7109;BME280;29079;41.930;25.558;2023-05-25T10:37:15;99530.19;;;22.75;69.64
7109;BME280;29079;41.930;25.558;2023-05-25T10:40:06;99524.91;;;22.87;70.94
7109;BME280;29079;41.930;25.558;2023-05-25T10:42:55;99529.81;;;22.71;70.73
7109;BME280;29079;41.930;25.558;2023-05-25T10:45:43;99524.09;;;22.86;69.35
7109;BME280;29079;41.930;25.558;2023-05-25T10:48:34;99523.22;;;22.86;69.25
7109;BME280;29079;41.930;25.558;2023-05-25T10:51:35;99512.91;;;23.01;68.71
7109;BME280;29079;41.930;25.558;2023-05-25T10:54:27;99501.13;;;23.07;66.55
7109;BME280;29079;41.930;25.558;2023-05-25T10:57:21;99474.34;;;23.04;66.90
7109;BME280;29079;41.930;25.558;2023-05-25T11:00:09;99512.16;;;23.26;65.20
7109;BME280;29079;41.930;25.558;2023-05-25T11:03:00;99503.09;;;23.32;64.90
7109;BME280;29079;41.930;25.558;2023-05-25T11:05:49;99514.63;;;23.34;63.73
7109;BME280;29079;41.930;25.558;2023-05-25T11:08:53;99496.81;;;23.32;61.72
7109;BME280;29079;41.930;25.558;2023-05-25T11:12:00;99510.41;;;23.38;62.70
7109;BME280;29079;41.930;25.558;2023-05-25T11:15:11;99511.09;;;23.27;65.11
7109;BME280;29079;41.930;25.558;2023-05-25T11:18:01;99500.66;;;23.24;64.67
7109;BME280;29079;41.930;25.558;2023-05-25T11:20:48;99479.88;;;22.91;66.07
7109;BME280;29079;41.930;25.558;2023-05-25T11:23:38;99493.69;;;22.96;63.79
7109;BME280;29079;41.930;25.558;2023-05-25T11:26:51;99434.56;;;22.39;64.39
7109;BME280;29079;41.930;25.558;2023-05-25T11:29:40;99475.56;;;22.76;64.99
7109;BME280;29079;41.930;25.558;2023-05-25T11:32:29;99491.81;;;22.90;65.55
7109;BME280;29079;41.930;25.558;2023-05-25T11:35:17;99497.03;;;22.91;67.12
7109;BME280;29079;41.930;25.558;2023-05-25T11:38:05;99487.69;;;22.81;66.95
7109;BME280;29079;41.930;25.558;2023-05-25T11:40:53;99493.31;;;22.86;68.15
7109;BME280;29079;41.930;25.558;2023-05-25T11:43:44;99496.06;;;22.79;68.06
7109;BME280;29079;41.930;25.558;2023-05-25T11:46:32;99450.16;;;22.51;66.84
7109;BME280;29079;41.930;25.558;2023-05-25T11:49:22;99486.88;;;22.80;67.28
7109;BME280;29079;41.930;25.558;2023-05-25T11:52:12;99467.63;;;22.75;66.24
7109;BME280;29079;41.930;25.558;2023-05-25T11:55:00;99471.03;;;23.02;67.34
7109;BME280;29079;41.930;25.558;2023-05-25T11:57:55;99481.84;;;23.16;67.94
7109;BME280;29079;41.930;25.558;2023-05-25T12:00:44;99474.00;;;22.94;68.00
7109;BME280;29079;41.930;25.558;2023-05-25T12:03:32;99472.03;;;23.15;67.93
7109;BME280;29079;41.930;25.558;2023-05-25T12:06:25;99460.31;;;23.07;64.55
7109;BME280;29079;41.930;25.558;2023-05-25T12:09:18;99467.25;;;23.03;65.33
7109;BME280;29079;41.930;25.558;2023-05-25T12:12:06;99452.03;;;22.95;66.68
7109;BME280;29079;41.930;25.558;2023-05-25T12:14:54;99456.75;;;23.07;69.86
7109;BME280;29079;41.930;25.558;2023-05-25T12:17:44;99457.75;;;22.87;68.77
7109;BME280;29079;41.930;25.558;2023-05-25T12:20:32;99460.25;;;22.89;70.79
7109;BME280;29079;41.930;25.558;2023-05-25T12:23:25;99465.72;;;22.82;66.59
7109;BME280;29079;41.930;25.558;2023-05-25T12:26:15;99469.09;;;22.77;68.79
7109;BME280;29079;41.930;25.558;2023-05-25T12:29:04;99472.72;;;22.58;71.81
7109;BME280;29079;41.930;25.558;2023-05-25T12:31:52;99479.47;;;22.49;73.08
7109;BME280;29079;41.930;25.558;2023-05-25T12:34:47;99468.63;;;22.42;74.45
7109;BME280;29079;41.930;25.558;2023-05-25T12:37:35;99466.91;;;22.54;74.41
7109;BME280;29079;41.930;25.558;2023-05-25T12:40:24;99470.94;;;22.38;75.46
7109;BME280;29079;41.930;25.558;2023-05-25T12:43:14;99469.91;;;22.39;76.59
7109;BME280;29079;41.930;25.558;2023-05-25T12:46:03;99480.75;;;22.26;77.34
7109;BME280;29079;41.930;25.558;2023-05-25T12:48:50;99486.25;;;22.13;77.85
7109;BME280;29079;41.930;25.558;2023-05-25T12:51:38;99478.31;;;22.04;76.22
7109;BME280;29079;41.930;25.558;2023-05-25T12:54:43;99485.41;;;22.12;75.68
7109;BME280;29079;41.930;25.558;2023-05-25T12:57:34;99497.34;;;22.04;77.36
7109;BME280;29079;41.930;25.558;2023-05-25T13:00:23;99522.66;;;21.78;77.99
7109;BME280;29079;41.930;25.558;2023-05-25T13:03:12;99551.50;;;21.99;77.72
7109;BME280;29079;41.930;25.558;2023-05-25T13:06:00;99544.38;;;21.65;77.83
7109;BME280;29079;41.930;25.558;2023-05-25T13:08:48;99541.03;;;21.56;76.99
7109;BME280;29079;41.930;25.558;2023-05-25T13:11:36;99556.41;;;21.15;75.42
7109;BME280;29079;41.930;25.558;2023-05-25T13:14:25;99534.84;;;20.94;67.43
7109;BME280;29079;41.930;25.558;2023-05-25T13:17:13;99552.84;;;21.21;68.15
7109;BME280;29079;41.930;25.558;2023-05-25T13:20:01;99553.28;;;21.32;64.57
7109;BME280;29079;41.930;25.558;2023-05-25T13:22:51;99539.13;;;21.36;72.20
7109;BME280;29079;41.930;25.558;2023-05-25T13:25:41;99527.28;;;20.82;76.83
7109;BME280;29079;41.930;25.558;2023-05-25T13:28:28;99517.25;;;19.99;89.43
7109;BME280;29079;41.930;25.558;2023-05-25T13:31:18;99509.84;;;20.15;94.86
7109;BME280;29079;41.930;25.558;2023-05-25T13:34:06;99499.09;;;19.43;100.00
7109;BME280;29079;41.930;25.558;2023-05-25T13:36:53;99497.72;;;19.54;100.00
7109;BME280;29079;41.930;25.558;2023-05-25T13:39:42;99511.34;;;19.67;100.00
7109;BME280;29079;41.930;25.558;2023-05-25T13:42:29;99516.44;;;19.77;97.36
7109;BME280;29079;41.930;25.558;2023-05-25T13:45:17;99511.03;;;19.77;99.08
7109;BME280;29079;41.930;25.558;2023-05-25T13:48:07;99518.38;;;19.83;100.00
7109;BME280;29079;41.930;25.558;2023-05-25T13:50:55;99512.84;;;19.70;97.96
7109;BME280;29079;41.930;25.558;2023-05-25T13:53:43;99523.88;;;19.69;98.16
7109;BME280;29079;41.930;25.558;2023-05-25T13:56:31;99532.50;;;19.79;99.65
7109;BME280;29079;41.930;25.558;2023-05-25T13:59:19;99535.78;;;19.96;100.00
7109;BME280;29079;41.930;25.558;2023-05-25T14:02:06;99524.06;;;19.67;100.00
7109;BME280;29079;41.930;25.558;2023-05-25T14:04:56;99524.97;;;19.53;100.00
7109;BME280;29079;41.930;25.558;2023-05-25T14:07:43;99518.97;;;19.79;100.00
7109;BME280;29079;41.930;25.558;2023-05-25T14:10:32;99507.28;;;20.07;100.00
7109;BME280;29079;41.930;25.558;2023-05-25T14:13:20;99524.59;;;20.06;100.00
7109;BME280;29079;41.930;25.558;2023-05-25T14:16:08;99493.19;;;19.61;100.00
7109;BME280;29079;41.930;25.558;2023-05-25T14:18:56;99435.06;;;19.29;100.00
7109;BME280;29079;41.930;25.558;2023-05-25T14:21:45;99509.22;;;19.85;100.00
7109;BME280;29079;41.930;25.558;2023-05-25T14:24:49;99510.72;;;19.87;100.00
7109;BME280;29079;41.930;25.558;2023-05-25T14:27:37;99447.75;;;19.28;100.00
7109;BME280;29079;41.930;25.558;2023-05-25T14:30:25;99521.63;;;20.00;100.00
7109;BME280;29079;41.930;25.558;2023-05-25T14:33:12;99527.53;;;20.11;100.00
7109;BME280;29079;41.930;25.558;2023-05-25T14:36:03;99517.78;;;20.16;100.00
7109;BME280;29079;41.930;25.558;2023-05-25T14:38:52;99516.53;;;19.84;100.00
7109;BME280;29079;41.930;25.558;2023-05-25T14:41:40;99523.88;;;19.69;100.00
7109;BME280;29079;41.930;25.558;2023-05-25T14:44:28;99534.25;;;19.65;100.00
7109;BME280;29079;41.930;25.558;2023-05-25T14:47:16;99540.25;;;19.82;100.00
7109;BME280;29079;41.930;25.558;2023-05-25T14:50:04;99534.03;;;20.16;100.00
7109;BME280;29079;41.930;25.558;2023-05-25T14:52:52;99529.13;;;19.98;100.00